Terminal Aerodrome Forecast
Issued by NWS

Current Version | Previous Version | Text Only | Print | Product List | Glossary On
Versions: 1 2 3 4 5 6 7 8 9 10 11 12 13 14 15 16 17 18 19 20 21 22 23 24 25 26 27 28 29 30 31
000
FTAK31 PANC 230524
TAFASN
TAF
PASN 230524Z 2306/2406 36014G22KT P6SM -SHRA SCT015 OVC025
      TEMPO 2306/2310 BKN015 OVC025
     FM231600 33015G22KT P6SM BKN025 OVC035=

USA.gov is the U.S. government's official web portal to all federal, state and local government web resources and services.